Time;durP1;ratioP1;P1;durP2;ratioP2;P2;SDS_P1;SDS_P2;PMS_P1;PMS_P2;Temp;Humidity;BMP_temperature;BMP_pressure;BME280_temperature;BME280_humidity;BME280_pressure;Samples;Min_cycle;Max_cycle;Signal;HPM_P1;HPM_P2
2022/06/12 00:01:24;;;;;;;5.85;5.43;;;;;;;19.05;nan;94796.59;5075265;28;20683;-73
2022/06/12 00:03:51;;;;;;;5.07;4.75;;;;;;;18.82;nan;94796.44;5076887;28;20671;-74
2022/06/12 00:06:21;;;;;;;5.32;4.93;;;;;;;18.75;nan;94795.25;5075574;28;20209;-73
2022/06/12 00:08:48;;;;;;;5.50;5.20;;;;;;;18.57;nan;94802.44;5075300;28;20648;-74
2022/06/12 00:11:18;;;;;;;5.95;5.53;;;;;;;18.52;nan;94801.97;5074602;28;20278;-73
2022/06/12 00:13:48;;;;;;;8.02;5.97;;;;;;;18.82;nan;94796.44;5075548;28;20261;-73
2022/06/12 00:16:16;;;;;;;8.18;5.32;;;;;;;18.98;nan;94794.44;5074372;28;20240;-73
2022/06/12 00:18:43;;;;;;;7.47;5.03;;;;;;;19.33;nan;94791.09;5074972;28;20208;-74
2022/06/12 00:21:15;;;;;;;5.40;5.03;;;;;;;19.31;nan;94788.63;5073988;28;20296;-73
2022/06/12 00:23:47;;;;;;;9.57;6.30;;;;;;;19.13;nan;94784.81;5075421;28;20204;-74
2022/06/12 00:26:18;;;;;;;7.85;7.15;;;;;;;18.99;nan;94790.94;5075238;28;20225;-73
2022/06/12 00:28:45;;;;;;;6.78;6.03;;;;;;;19.02;nan;94792.50;5075030;28;20208;-74
2022/06/12 00:31:12;;;;;;;7.85;7.32;;;;;;;19.26;nan;94784.75;5073786;28;20556;-74
2022/06/12 00:33:39;;;;;;;7.28;6.78;;;;;;;19.32;nan;94787.69;5075697;28;20205;-74
2022/06/12 00:36:07;;;;;;;6.18;5.75;;;;;;;19.28;nan;94783.72;5073721;28;20713;-73
2022/06/12 00:38:34;;;;;;;7.55;6.53;;;;;;;19.26;nan;94787.34;5074923;28;20218;-73
2022/06/12 00:41:00;;;;;;;6.15;5.70;;;;;;;19.43;nan;94793.84;5074441;28;20228;-74
2022/06/12 00:43:31;;;;;;;6.00;5.55;;;;;;;19.59;nan;94791.81;5075186;28;20775;-72
2022/06/12 00:46:01;;;;;;;5.78;5.45;;;;;;;19.20;nan;94780.03;5074345;28;20599;-73
2022/06/12 00:48:30;;;;;;;6.30;5.70;;;;;;;19.38;nan;94783.88;5074746;28;20667;-75
2022/06/12 00:51:01;;;;;;;8.45;5.85;;;;;;;19.24;nan;94787.44;5075325;28;20205;-73
2022/06/12 00:53:33;;;;;;;6.57;6.07;;;;;;;19.46;nan;94784.13;5074529;28;20286;-73
2022/06/12 00:56:07;;;;;;;7.68;7.05;;;;;;;19.46;nan;94781.56;5075538;28;20735;-73
2022/06/12 00:58:40;;;;;;;6.53;5.53;;;;;;;19.66;nan;94783.53;5073971;28;20692;-72
2022/06/12 01:01:12;;;;;;;7.05;5.57;;;;;;;19.80;nan;94779.91;5073955;28;20209;-73
2022/06/12 01:06:33;;;;;;;6.75;6.22;;;;;;;19.83;nan;94781.44;5073921;28;20669;-73
2022/06/12 01:06:35;;;;;;;6.25;5.78;;;;;;;19.99;nan;94774.22;5075217;28;20242;-74
2022/06/12 01:09:05;;;;;;;5.80;5.35;;;;;;;20.12;nan;94780.09;5075384;28;20234;-74
2022/06/12 01:11:33;;;;;;;5.60;5.10;;;;;;;20.14;nan;94782.56;5074500;28;20212;-72
2022/06/12 01:14:02;;;;;;;5.75;5.40;;;;;;;19.94;nan;94787.47;5075214;28;20193;-73
2022/06/12 01:16:29;;;;;;;5.55;5.13;;;;;;;19.85;nan;94785.56;5073729;28;20640;-73
2022/06/12 01:18:56;;;;;;;7.18;5.68;;;;;;;19.90;nan;94774.91;5074847;28;20586;-74
2022/06/12 01:22:08;;;;;;;7.63;5.35;;;;;;;19.80;nan;94763.63;5073676;28;20201;-71
2022/06/12 01:25:05;;;;;;;5.53;5.22;;;;;;;19.79;nan;94764.59;5073796;28;20490;-72
2022/06/12 01:27:58;;;;;;;7.18;4.85;;;;;;;19.80;nan;94754.13;5076856;28;20240;-72
2022/06/12 01:30:32;;;;;;;5.13;4.82;;;;;;;19.67;nan;94758.56;5035582;28;20208;-72
2022/06/12 01:33:04;;;;;;;6.15;5.05;;;;;;;19.44;nan;94757.66;5077829;28;20201;-72
2022/06/12 01:35:40;;;;;;;5.82;5.28;;;;;;;19.26;nan;94753.84;5077292;28;20736;-72
2022/06/12 01:38:13;;;;;;;6.10;5.57;;;;;;;19.20;nan;94767.16;5079183;28;20223;-72
2022/06/12 01:40:51;;;;;;;5.93;5.53;;;;;;;19.29;nan;94758.78;5078840;28;20346;-72
2022/06/12 01:43:21;;;;;;;5.93;5.53;;;;;;;19.29;nan;94753.63;5079322;28;20233;-71
2022/06/12 01:45:58;;;;;;;5.15;4.75;;;;;;;19.33;nan;94747.28;5078743;28;20205;-71
2022/06/12 01:48:39;;;;;;;6.25;5.72;;;;;;;19.34;nan;94749.75;5078531;28;20208;-72
2022/06/12 01:51:13;;;;;;;5.60;5.20;;;;;;;19.42;nan;94759.53;5078905;28;21721;-72
2022/06/12 01:53:52;;;;;;;6.22;5.45;;;;;;;19.46;nan;94754.97;5078998;28;20226;-72
2022/06/12 01:56:24;;;;;;;5.28;4.78;;;;;;;19.33;nan;94755.03;5078744;28;20652;-73
2022/06/12 01:58:57;;;;;;;5.35;5.05;;;;;;;18.83;nan;94756.91;5078363;28;20594;-73
2022/06/12 02:01:32;;;;;;;6.00;5.50;;;;;;;18.55;nan;94759.75;5078865;28;20201;-73
2022/06/12 02:04:05;;;;;;;6.28;5.78;;;;;;;18.12;nan;94754.13;5079009;28;20193;-72
2022/06/12 02:06:39;;;;;;;6.28;5.78;;;;;;;17.89;nan;94771.94;5079199;28;20722;-71
2022/06/12 02:09:13;;;;;;;8.57;5.63;;;;;;;18.07;nan;94777.59;5078441;28;20225;-72
2022/06/12 02:14:35;;;;;;;7.95;5.55;;;;;;;18.27;nan;94759.06;5078820;28;20244;-71
2022/06/12 02:17:09;;;;;;;5.50;5.20;;;;;;;18.35;nan;94763.69;5078094;28;20693;-71
2022/06/12 02:19:41;;;;;;;5.68;5.28;;;;;;;18.59;nan;94759.44;5078006;28;20599;-72
2022/06/12 02:22:13;;;;;;;6.82;5.90;;;;;;;18.87;nan;94771.19;5078588;28;20198;-72
2022/06/12 02:24:44;;;;;;;5.72;5.32;;;;;;;19.00;nan;94769.41;5079087;28;20593;-71
2022/06/12 02:27:17;;;;;;;7.95;5.15;;;;;;;19.15;nan;94753.78;5077827;28;20225;-72
2022/06/12 02:29:51;;;;;;;5.72;5.43;;;;;;;19.25;nan;94757.34;5078810;28;20221;-72
2022/06/12 02:32:24;;;;;;;7.22;5.55;;;;;;;19.11;nan;94757.50;5077951;28;20202;-72
2022/06/12 02:34:55;;;;;;;6.32;5.95;;;;;;;18.89;nan;94759.03;5078670;28;20233;-72
2022/06/12 02:37:28;;;;;;;5.72;5.32;;;;;;;19.02;nan;94752.09;5077934;28;20236;-72
2022/06/12 02:40:00;;;;;;;5.10;4.80;;;;;;;19.12;nan;94748.84;5077381;28;20202;-72
2022/06/12 02:42:30;;;;;;;7.65;5.32;;;;;;;19.27;nan;94750.34;5077230;28;20198;-72
2022/06/12 02:45:02;;;;;;;6.25;5.75;;;;;;;19.30;nan;94756.06;5077939;28;20322;-72
2022/06/12 02:47:34;;;;;;;6.97;6.32;;;;;;;19.44;nan;94755.06;5078266;28;20685;-72
2022/06/12 02:50:02;;;;;;;6.13;5.68;;;;;;;19.36;nan;94750.47;5077650;28;20197;-71
2022/06/12 02:52:37;;;;;;;6.25;5.53;;;;;;;19.36;nan;94765.09;5076236;28;20198;-71
2022/06/12 02:55:11;;;;;;;6.10;5.70;;;;;;;19.25;nan;94765.91;5075550;28;20271;-72
2022/06/12 02:57:47;;;;;;;6.25;5.85;;;;;;;19.30;nan;94775.88;5076298;28;20236;-71
2022/06/12 03:00:19;;;;;;;7.15;6.50;;;;;;;19.26;nan;94775.28;5075576;28;20209;-72
2022/06/12 03:02:54;;;;;;;8.90;6.05;;;;;;;19.25;nan;94773.63;5075914;28;20328;-72
2022/06/12 03:05:26;;;;;;;5.90;5.53;;;;;;;19.10;nan;94769.56;5074653;28;20217;-72
2022/06/12 03:07:59;;;;;;;6.80;5.43;;;;;;;19.11;nan;94757.50;5077736;28;20251;-72
2022/06/12 03:10:30;;;;;;;8.55;6.03;;;;;;;19.23;nan;94767.78;5077164;28;20210;-72
2022/06/12 03:12:58;;;;;;;7.93;5.88;;;;;;;18.91;nan;94764.91;5077516;28;20332;-71
2022/06/12 03:15:35;;;;;;;6.00;5.60;;;;;;;18.91;nan;94769.22;5077052;28;20979;-72
2022/06/12 03:18:07;;;;;;;9.38;5.65;;;;;;;18.94;nan;94771.59;5077674;28;20227;-72
2022/06/12 03:20:41;;;;;;;5.97;5.57;;;;;;;18.84;nan;94771.41;5076788;28;20635;-72
2022/06/12 03:23:17;;;;;;;5.88;5.57;;;;;;;19.11;nan;94771.22;5077237;28;20202;-72
2022/06/12 03:25:51;;;;;;;5.97;5.32;;;;;;;19.39;nan;94767.47;5076799;28;20236;-71
2022/06/12 03:28:27;;;;;;;7.22;6.47;;;;;;;19.26;nan;94764.97;5076717;28;20204;-71
2022/06/12 03:31:03;;;;;;;6.60;6.15;;;;;;;19.19;nan;94763.75;5076335;28;20208;-72
2022/06/12 03:33:39;;;;;;;6.45;6.05;;;;;;;19.16;nan;94768.31;5077673;28;20204;-71
2022/06/12 03:36:15;;;;;;;9.43;6.07;;;;;;;19.10;nan;94763.59;5076643;28;20229;-72
2022/06/12 03:38:48;;;;;;;6.22;5.82;;;;;;;19.36;nan;94771.09;5076741;28;20251;-72
2022/06/12 03:41:20;;;;;;;7.65;6.38;;;;;;;18.90;nan;94768.41;5076389;28;20220;-71
2022/06/12 03:43:54;;;;;;;6.25;5.85;;;;;;;18.68;nan;94768.28;5077099;28;20202;-71
2022/06/12 03:46:26;;;;;;;6.95;6.15;;;;;;;18.78;nan;94771.03;5076654;28;20201;-72
2022/06/12 03:49:03;;;;;;;6.25;5.85;;;;;;;18.71;nan;94762.09;5076062;28;20214;-71
2022/06/12 03:51:37;;;;;;;6.50;6.07;;;;;;;19.17;nan;94765.63;5076281;28;20292;-71
2022/06/12 03:54:12;;;;;;;6.43;6.03;;;;;;;19.15;nan;94766.66;5076785;28;20213;-71
2022/06/12 03:59:35;;;;;;;7.45;6.95;;;;;;;19.44;nan;94767.97;5076301;28;20342;-72
2022/06/12 04:02:04;;;;;;;7.47;6.97;;;;;;;19.31;nan;94762.88;5076192;28;20743;-72
2022/06/12 04:04:36;;;;;;;7.53;6.78;;;;;;;19.33;nan;94770.47;5076797;28;20206;-72
2022/06/12 04:07:07;;;;;;;7.20;6.47;;;;;;;19.51;nan;94774.34;5075831;28;20205;-71
2022/06/12 04:09:40;;;;;;;7.22;6.30;;;;;;;19.50;nan;94777.88;5076819;28;20221;-71
2022/06/12 04:12:11;;;;;;;7.40;6.88;;;;;;;19.11;nan;94780.69;5075975;28;20272;-71
2022/06/12 04:14:42;;;;;;;7.07;6.30;;;;;;;19.41;nan;94778.50;5076490;28;20213;-72
2022/06/12 04:17:09;;;;;;;7.38;6.00;;;;;;;19.57;nan;94784.19;5076081;28;20229;-71
2022/06/12 04:22:24;;;;;;;7.93;6.60;;;;;;;19.87;nan;94781.13;5075067;28;21510;-73
2022/06/12 04:24:56;;;;;;;7.00;6.60;;;;;;;19.76;nan;94783.69;5075971;28;20732;-71
2022/06/12 04:27:28;;;;;;;9.38;7.68;;;;;;;19.72;nan;94778.88;5075985;28;20232;-71
2022/06/12 04:29:58;;;;;;;8.40;7.22;;;;;;;19.83;nan;94799.50;5076071;28;20205;-71
2022/06/12 04:32:26;;;;;;;7.38;6.88;;;;;;;19.68;nan;94791.97;5076053;28;20675;-72
2022/06/12 04:34:55;;;;;;;9.80;7.88;;;;;;;19.59;nan;94792.63;5076238;28;20587;-71
2022/06/12 04:37:25;;;;;;;8.30;7.50;;;;;;;19.73;nan;94794.22;5075438;28;20225;-71
2022/06/12 04:39:54;;;;;;;8.35;7.57;;;;;;;19.55;nan;94780.91;5074705;28;20208;-71
2022/06/12 04:42:23;;;;;;;9.10;8.50;;;;;;;19.58;nan;94796.16;5075378;28;20681;-72
2022/06/12 04:44:51;;;;;;;9.00;8.40;;;;;;;19.82;nan;94797.84;5076304;28;20205;-71
2022/06/12 04:47:21;;;;;;;8.52;7.82;;;;;;;20.10;nan;94797.44;5075517;28;20213;-72
2022/06/12 04:49:49;;;;;;;9.35;8.20;;;;;;;20.51;nan;94796.94;5076062;28;20198;-71
2022/06/12 04:52:17;;;;;;;8.25;7.75;;;;;;;20.83;nan;94801.34;5075339;28;20197;-71
2022/06/12 04:54:46;;;;;;;8.20;7.60;;;;;;;21.30;nan;94803.63;5075515;28;20623;-72
2022/06/12 04:57:16;;;;;;;8.38;7.55;;;;;;;21.61;nan;94793.41;5075181;28;20589;-72
2022/06/12 04:59:43;;;;;;;8.25;7.55;;;;;;;21.82;nan;94807.19;5075526;28;20197;-71
2022/06/12 05:02:11;;;;;;;8.63;7.75;;;;;;;21.92;nan;94804.66;5073551;28;20208;-72
2022/06/12 05:04:38;;;;;;;7.45;7.03;;;;;;;22.13;nan;94810.69;5074554;28;20212;-71
2022/06/12 05:07:07;;;;;;;7.72;7.32;;;;;;;22.01;nan;94811.72;5073619;28;20296;-72
2022/06/12 05:09:39;;;;;;;8.55;7.82;;;;;;;22.20;nan;94817.00;5074162;28;20213;-71
2022/06/12 05:12:08;;;;;;;8.02;7.53;;;;;;;22.13;nan;94810.69;5072950;28;20292;-71
2022/06/12 05:14:35;;;;;;;9.90;6.72;;;;;;;22.03;nan;94812.38;5073722;28;20208;-72
2022/06/12 05:17:05;;;;;;;7.53;7.03;;;;;;;22.59;nan;94814.59;5074561;28;20792;-72
2022/06/12 05:19:37;;;;;;;7.10;6.47;;;;;;;23.12;nan;94810.03;5075450;28;20201;-72
2022/06/12 05:22:05;;;;;;;8.40;7.80;;;;;;;23.41;nan;94804.88;5075462;28;20202;-72
2022/06/12 05:24:33;;;;;;;8.43;7.35;;;;;;;23.02;nan;94804.00;5075571;28;20202;-71
2022/06/12 05:27:01;;;;;;;7.55;7.00;;;;;;;22.97;nan;94811.38;5074850;28;20302;-72
2022/06/12 05:29:31;;;;;;;8.15;7.57;;;;;;;22.64;nan;94804.66;5075184;28;20300;-71
2022/06/12 05:31:59;;;;;;;8.50;7.82;;;;;;;22.13;nan;94799.50;5075404;28;20677;-71
2022/06/12 05:34:28;;;;;;;8.57;7.53;;;;;;;22.18;nan;94815.50;5075453;28;20249;-71
2022/06/12 05:36:56;;;;;;;9.18;7.70;;;;;;;22.19;nan;94804.19;5074921;28;20229;-72
2022/06/12 05:39:23;;;;;;;8.05;7.20;;;;;;;21.88;nan;94811.84;5074440;28;21496;-70
2022/06/12 05:41:51;;;;;;;8.52;7.90;;;;;;;21.54;nan;94813.75;5074742;28;20763;-70
2022/06/12 05:44:19;;;;;;;7.72;7.22;;;;;;;21.19;nan;94818.31;5075525;28;20234;-70
2022/06/12 05:46:47;;;;;;;9.75;8.80;;;;;;;21.02;nan;94823.06;5074372;28;20209;-70
2022/06/12 05:49:15;;;;;;;8.10;7.50;;;;;;;20.77;nan;94812.19;5075496;28;20197;-70
2022/06/12 05:51:42;;;;;;;10.75;9.88;;;;;;;20.71;nan;94808.31;5074708;28;20776;-70
2022/06/12 05:54:10;;;;;;;11.15;10.23;;;;;;;20.53;nan;94812.31;5074371;28;20579;-71
2022/06/12 05:56:38;;;;;;;9.57;8.73;;;;;;;20.25;nan;94816.13;5074608;28;20708;-70
2022/06/12 05:59:05;;;;;;;7.88;7.28;;;;;;;20.22;nan;94811.19;5075120;28;20293;-70
2022/06/12 06:01:33;;;;;;;8.30;7.80;;;;;;;20.24;nan;94815.31;5074632;28;20224;-70
2022/06/12 06:04:00;;;;;;;8.00;7.50;;;;;;;20.26;nan;94813.44;5075013;28;20743;-71
2022/06/12 06:06:30;;;;;;;10.20;9.40;;;;;;;20.44;nan;94819.00;5074274;28;20201;-70
2022/06/12 06:08:57;;;;;;;15.95;11.13;;;;;;;20.53;nan;94830.38;5074773;28;20719;-71
2022/06/12 06:11:25;;;;;;;30.33;23.45;;;;;;;20.60;nan;94821.22;5074167;28;20205;-70
2022/06/12 06:13:51;;;;;;;12.18;10.98;;;;;;;20.77;nan;94841.41;5078560;28;20212;-70
2022/06/12 06:16:18;;;;;;;15.15;11.38;;;;;;;20.73;nan;94840.00;5078241;28;20263;-69
2022/06/12 06:18:47;;;;;;;13.13;11.90;;;;;;;20.81;nan;94840.22;5079021;28;20229;-71
2022/06/12 06:21:14;;;;;;;9.25;8.35;;;;;;;20.71;nan;94839.28;5077319;28;20198;-71
2022/06/12 06:23:42;;;;;;;323.65;207.18;;;;;;;20.75;nan;94842.47;5078125;28;20213;-70
2022/06/12 06:26:09;;;;;;;19.25;12.32;;;;;;;20.72;nan;94835.78;5077775;28;20225;-70
2022/06/12 06:28:37;;;;;;;14.05;12.68;;;;;;;20.57;nan;94844.69;5078515;28;20198;-70
2022/06/12 06:31:04;;;;;;;10.00;9.20;;;;;;;20.62;nan;94858.06;5078148;28;20206;-70
2022/06/12 06:33:31;;;;;;;11.65;10.65;;;;;;;20.45;nan;94856.78;5078196;28;20298;-71
2022/06/12 06:36:00;;;;;;;9.38;8.60;;;;;;;20.20;nan;94860.34;5076355;28;20205;-71
2022/06/12 06:38:27;;;;;;;15.32;12.13;;;;;;;20.44;nan;94864.63;5078032;28;20225;-71
2022/06/12 06:40:53;;;;;;;11.63;9.20;;;;;;;20.26;nan;94861.66;5077359;28;20221;-70
2022/06/12 06:43:20;;;;;;;9.15;8.57;;;;;;;20.28;nan;94863.19;5077149;28;20201;-70
2022/06/12 06:48:32;;;;;;;13.45;12.35;;;;;;;20.35;nan;94859.19;5077960;28;20675;-71
2022/06/12 06:51:01;;;;;;;24.48;20.75;;;;;;;20.38;nan;94865.91;5077718;28;20201;-70
2022/06/12 06:53:28;;;;;;;15.02;13.57;;;;;;;20.44;nan;94862.03;5078045;28;20570;-70
2022/06/12 06:55:55;;;;;;;13.40;10.63;;;;;;;20.54;nan;94868.97;5077845;28;20205;-70
2022/06/12 06:58:24;;;;;;;9.45;8.73;;;;;;;20.67;nan;94866.28;5076372;28;20225;-72
2022/06/12 07:00:52;;;;;;;33.30;23.63;;;;;;;20.82;nan;94870.28;5075318;28;20206;-70
2022/06/12 07:03:19;;;;;;;14.32;12.93;;;;;;;20.77;nan;94869.81;5075892;28;21275;-71
2022/06/12 07:05:48;;;;;;;18.50;16.23;;;;;;;20.71;nan;94867.69;5075982;28;20592;-70
2022/06/12 07:08:17;;;;;;;14.63;12.38;;;;;;;20.79;nan;94867.13;5075719;28;20206;-71
2022/06/12 07:10:44;;;;;;;9.95;9.15;;;;;;;20.91;nan;94859.25;5075377;28;20205;-71
2022/06/12 07:13:11;;;;;;;18.00;14.75;;;;;;;21.23;nan;94866.28;5076504;28;20217;-71
2022/06/12 07:15:39;;;;;;;15.98;14.25;;;;;;;21.42;nan;94863.88;5076971;28;20198;-71
2022/06/12 07:18:07;;;;;;;10.82;9.85;;;;;;;21.38;nan;94860.72;5077314;28;20232;-71
2022/06/12 07:20:39;;;;;;;9.45;8.65;;;;;;;21.37;nan;94866.81;5077314;28;20648;-71
2022/06/12 07:23:07;;;;;;;11.02;9.75;;;;;;;21.37;nan;94863.41;5076883;28;20206;-71
2022/06/12 07:25:41;;;;;;;13.68;12.45;;;;;;;21.31;nan;94858.72;5075916;28;20233;-71
2022/06/12 07:28:08;;;;;;;10.77;9.93;;;;;;;21.53;nan;94870.81;5078007;28;20896;-71
2022/06/12 07:30:35;;;;;;;9.05;8.35;;;;;;;21.56;nan;94867.94;5077364;28;20202;-71
2022/06/12 07:33:04;;;;;;;7.95;7.55;;;;;;;21.63;nan;94875.09;5077291;28;20202;-70
2022/06/12 07:35:31;;;;;;;8.77;7.93;;;;;;;21.56;nan;94873.94;5076983;28;20198;-71
2022/06/12 07:37:58;;;;;;;8.15;7.45;;;;;;;21.55;nan;94882.63;5077016;28;20248;-71
2022/06/12 07:40:33;;;;;;;11.88;10.88;;;;;;;21.61;nan;94882.16;5076292;28;20244;-70
2022/06/12 07:43:01;;;;;;;13.95;10.57;;;;;;;21.54;nan;94875.81;5077366;28;20290;-70
2022/06/12 07:45:28;;;;;;;8.80;8.15;;;;;;;21.37;nan;94881.50;5076060;28;20255;-71
2022/06/12 07:47:55;;;;;;;12.30;8.85;;;;;;;21.39;nan;94884.81;5076820;28;21752;-70
2022/06/12 07:50:22;;;;;;;8.40;7.65;;;;;;;21.49;nan;94883.16;5076375;28;20202;-70
2022/06/12 07:52:49;;;;;;;33.65;23.33;;;;;;;21.36;nan;94882.47;5076200;28;20202;-71
2022/06/12 07:55:19;;;;;;;16.45;10.40;;;;;;;21.38;nan;94865.06;5075486;28;20733;-70
2022/06/12 07:57:47;;;;;;;9.52;8.68;;;;;;;21.47;nan;94887.63;5076712;28;20225;-69
2022/06/12 08:00:18;;;;;;;7.20;6.70;;;;;;;21.55;nan;94892.97;5075845;28;20212;-71
2022/06/12 08:02:47;;;;;;;10.27;9.45;;;;;;;21.69;nan;94894.50;5076606;28;20198;-71
2022/06/12 08:05:15;;;;;;;8.80;7.22;;;;;;;21.60;nan;94890.84;5075259;28;20209;-71
2022/06/12 08:07:42;;;;;;;7.18;6.78;;;;;;;21.61;nan;94889.91;5076199;28;20230;-71
2022/06/12 08:10:11;;;;;;;8.15;6.75;;;;;;;21.58;nan;94882.41;5076146;28;20221;-72
2022/06/12 08:12:40;;;;;;;7.15;6.63;;;;;;;21.67;nan;94892.03;5076597;28;20205;-72
2022/06/12 08:15:11;;;;;;;8.73;7.53;;;;;;;21.42;nan;94886.34;5075738;28;20201;-71
2022/06/12 08:17:39;;;;;;;7.35;6.75;;;;;;;21.35;nan;94891.97;5076491;28;20237;-71
2022/06/12 08:20:28;;;;;;;7.57;7.00;;;;;;;21.01;nan;94883.44;5075435;28;20202;-71
2022/06/12 08:22:59;;;;;;;7.40;6.85;;;;;;;20.91;nan;94885.06;5076056;28;20766;-71
2022/06/12 08:25:28;;;;;;;7.53;7.03;;;;;;;20.60;nan;94894.31;5075217;28;20269;-70
2022/06/12 08:27:56;;;;;;;9.77;7.82;;;;;;;20.62;nan;94892.44;5073241;28;20202;-70
2022/06/12 08:30:23;;;;;;;9.35;8.65;;;;;;;20.67;nan;94898.09;5075145;28;20744;-71
2022/06/12 08:32:56;;;;;;;9.02;8.13;;;;;;;20.79;nan;94895.53;5075762;28;20315;-71
2022/06/12 08:35:28;;;;;;;9.05;7.68;;;;;;;20.73;nan;94893.41;5075316;28;20716;-71
2022/06/12 08:37:56;;;;;;;9.80;8.55;;;;;;;20.93;nan;94896.09;5075529;28;21568;-71
2022/06/12 08:40:30;;;;;;;8.70;7.82;;;;;;;21.28;nan;94895.19;5074574;28;20347;-71
2022/06/12 08:43:09;;;;;;;8.73;8.02;;;;;;;21.38;nan;94888.34;5074230;28;20207;-71
2022/06/12 08:45:43;;;;;;;9.70;8.93;;;;;;;21.45;nan;94897.25;5075261;28;20205;-70
2022/06/12 08:48:18;;;;;;;9.23;8.52;;;;;;;21.50;nan;94900.31;5075156;28;20206;-70
2022/06/12 08:50:49;;;;;;;9.27;8.07;;;;;;;21.76;nan;94916.34;5074781;28;20212;-70
2022/06/12 08:53:23;;;;;;;14.43;13.07;;;;;;;21.88;nan;94917.09;5074668;28;20206;-71
2022/06/12 08:55:56;;;;;;;20.35;16.88;;;;;;;22.11;nan;94916.09;5075401;28;20288;-71
2022/06/12 08:58:28;;;;;;;22.33;17.40;;;;;;;22.13;nan;94913.38;5074288;28;20237;-70
2022/06/12 09:00:56;;;;;;;20.20;18.05;;;;;;;22.16;nan;94913.16;5074479;28;20248;-71
2022/06/12 09:03:33;;;;;;;19.77;15.73;;;;;;;22.08;nan;94907.75;5074612;28;20201;-71
2022/06/12 09:06:07;;;;;;;10.10;8.75;;;;;;;21.91;nan;94909.94;5074008;28;21884;-72
2022/06/12 09:08:42;;;;;;;29.38;21.50;;;;;;;21.66;nan;94905.06;5073899;28;20287;-70
2022/06/12 09:11:15;;;;;;;18.55;15.80;;;;;;;21.34;nan;94910.19;5071702;28;21069;-70
2022/06/12 09:13:51;;;;;;;19.55;15.20;;;;;;;21.56;nan;94904.97;5071897;28;20661;-70
2022/06/12 09:16:27;;;;;;;18.98;16.33;;;;;;;21.44;nan;94905.94;5074295;28;21542;-70
2022/06/12 09:19:02;;;;;;;27.02;20.20;;;;;;;21.70;nan;94909.88;5074706;28;20231;-71
2022/06/12 09:21:38;;;;;;;13.70;12.30;;;;;;;21.58;nan;94905.66;5075675;28;20224;-71
2022/06/12 09:24:11;;;;;;;11.50;10.60;;;;;;;21.68;nan;94909.19;5074450;28;20274;-72
2022/06/12 09:26:49;;;;;;;181.85;120.07;;;;;;;21.79;nan;94907.47;5074375;28;20225;-72
2022/06/12 09:29:25;;;;;;;59.85;46.53;;;;;;;21.93;nan;94914.97;5074406;28;20590;-73
2022/06/12 09:31:59;;;;;;;20.45;17.83;;;;;;;22.16;nan;94913.16;5075035;28;20300;-72
2022/06/12 09:34:36;;;;;;;38.90;28.08;;;;;;;22.21;nan;94911.00;5075003;28;20204;-72
2022/06/12 09:40:17;;;;;;;70.32;49.17;;;;;;;22.13;nan;94911.63;5075090;28;20257;-72
2022/06/12 09:42:57;;;;;;;23.33;19.27;;;;;;;22.04;nan;94910.59;5074120;28;20224;-72
2022/06/12 09:45:29;;;;;;;12.32;8.95;;;;;;;21.97;nan;94924.16;5074322;28;20210;-72
2022/06/12 09:48:03;;;;;;;10.77;9.68;;;;;;;21.90;nan;94920.41;5076861;28;20209;-72
2022/06/12 09:50:47;;;;;;;10.18;9.35;;;;;;;21.85;nan;94912.19;5078537;28;20201;-73
2022/06/12 09:53:41;;;;;;;8.57;7.80;;;;;;;21.76;nan;94911.16;5074991;28;20197;-72
2022/06/12 09:56:14;;;;;;;9.50;8.48;;;;;;;21.54;nan;94901.69;5077740;28;20202;-72
2022/06/12 09:58:47;;;;;;;10.93;9.93;;;;;;;21.42;nan;94910.41;5075398;28;20345;-72
2022/06/12 10:01:21;;;;;;;13.05;11.68;;;;;;;21.20;nan;94902.66;5076042;28;20280;-72
2022/06/12 10:03:54;;;;;;;12.70;11.48;;;;;;;21.09;nan;94907.84;5075368;28;20216;-78
2022/06/12 10:06:28;;;;;;;23.70;16.88;;;;;;;21.31;nan;94910.41;5075266;28;20249;-75
2022/06/12 10:09:02;;;;;;;12.10;10.68;;;;;;;21.29;nan;94899.38;5076547;28;20301;-75
2022/06/12 10:11:34;;;;;;;9.05;8.25;;;;;;;21.02;nan;94903.16;5077423;28;20228;-76
2022/06/12 10:14:06;;;;;;;11.13;10.32;;;;;;;20.83;nan;94899.50;5078565;28;20205;-77
2022/06/12 10:16:40;;;;;;;9.15;8.55;;;;;;;20.81;nan;94902.19;5077693;28;20206;-74
2022/06/12 10:19:14;;;;;;;9.15;8.40;;;;;;;20.82;nan;94903.84;5077995;28;20736;-75
2022/06/12 10:21:49;;;;;;;10.48;9.60;;;;;;;20.83;nan;94897.75;5075798;28;20198;-74
2022/06/12 10:24:16;;;;;;;13.27;12.18;;;;;;;21.22;nan;94906.00;5074393;28;20212;-73
2022/06/12 10:26:55;;;;;;;11.90;10.30;;;;;;;21.18;nan;94905.38;5076243;28;20833;-76
2022/06/12 10:29:24;;;;;;;12.07;11.07;;;;;;;21.33;nan;94903.38;5076440;28;20194;-73
2022/06/12 10:31:57;;;;;;;10.75;9.85;;;;;;;21.32;nan;94896.56;5080312;28;20720;-75
2022/06/12 10:34:29;;;;;;;10.55;9.52;;;;;;;21.38;nan;94896.09;5079973;28;20262;-77
2022/06/12 10:37:10;;;;;;;12.95;11.77;;;;;;;21.62;nan;94891.56;5077900;28;20805;-77
2022/06/12 10:39:37;;;;;;;9.13;8.27;;;;;;;21.89;nan;94906.63;5077055;28;20851;-75
2022/06/12 10:42:07;;;;;;;10.35;9.45;;;;;;;21.94;nan;94894.16;5077726;28;20217;-75
2022/06/12 10:44:38;;;;;;;8.77;8.02;;;;;;;22.06;nan;94898.34;5077234;28;20293;-74
2022/06/12 10:47:26;;;;;;;8.55;7.45;;;;;;;22.32;nan;94905.75;5077956;28;20266;-75
2022/06/12 10:50:25;;;;;;;8.00;7.30;;;;;;;22.46;nan;94894.28;5069444;28;20336;-76
2022/06/12 10:53:01;;;;;;;7.68;7.07;;;;;;;22.69;nan;94890.59;5076980;28;20210;-74
2022/06/12 10:55:45;;;;;;;7.50;6.70;;;;;;;22.79;nan;94896.66;5076928;28;21188;-74
2022/06/12 10:58:44;;;;;;;10.20;9.35;;;;;;;22.96;nan;94882.28;5076952;28;20206;-75
2022/06/12 11:01:21;;;;;;;11.85;10.85;;;;;;;23.43;nan;94893.75;5074679;28;20212;-76
2022/06/12 11:03:58;;;;;;;10.95;10.02;;;;;;;23.76;nan;94892.59;5076924;28;20201;-75
2022/06/12 11:06:33;;;;;;;14.48;12.80;;;;;;;24.34;nan;94890.84;5077948;28;20201;-76
2022/06/12 11:09:14;;;;;;;12.50;11.32;;;;;;;24.69;nan;94886.81;5077069;28;20197;-76
2022/06/12 11:11:55;;;;;;;8.05;7.35;;;;;;;24.84;nan;94885.38;5077317;28;20630;-74
2022/06/12 11:14:37;;;;;;;5.47;5.18;;;;;;;24.88;nan;94884.13;5077491;28;20296;-75
2022/06/12 11:17:17;;;;;;;5.95;5.55;;;;;;;24.01;nan;94880.84;5075269;28;20612;-75
2022/06/12 11:20:01;;;;;;;7.05;6.45;;;;;;;24.41;nan;94883.31;5076868;28;20229;-75
2022/06/12 11:22:39;;;;;;;5.68;5.35;;;;;;;24.79;nan;94876.38;5076753;28;20202;-76
2022/06/12 11:25:23;;;;;;;5.28;4.97;;;;;;;24.98;nan;94887.56;5076778;28;20713;-74
2022/06/12 11:28:04;;;;;;;8.60;7.93;;;;;;;25.31;nan;94882.75;5077472;28;20213;-75
2022/06/12 11:30:41;;;;;;;13.13;11.90;;;;;;;25.16;nan;94885.03;5075927;28;20209;-74
2022/06/12 11:33:36;;;;;;;9.98;9.20;;;;;;;24.85;nan;94884.41;5077083;28;20207;-76
2022/06/12 11:36:09;;;;;;;9.13;8.40;;;;;;;24.02;nan;94877.28;5070658;28;21071;-75
2022/06/12 11:38:50;;;;;;;6.80;4.28;;;;;;;23.14;nan;94887.66;5076358;28;20250;-74
2022/06/12 11:41:33;;;;;;;7.63;7.05;;;;;;;23.22;nan;94882.66;5076399;28;20218;-77
2022/06/12 11:44:12;;;;;;;6.45;5.95;;;;;;;23.02;nan;94877.38;5069858;28;20216;-74
2022/06/12 11:46:49;;;;;;;3.63;3.42;;;;;;;23.62;nan;94875.66;5076948;28;20197;-74
2022/06/12 11:49:40;;;;;;;5.88;5.57;;;;;;;23.47;nan;94869.19;5076102;28;20666;-73
2022/06/12 11:52:25;;;;;;;12.93;11.57;;;;;;;23.34;nan;94861.66;5075171;28;20202;-74
2022/06/12 11:55:05;;;;;;;7.30;6.65;;;;;;;23.25;nan;94874.59;5075583;28;20213;-71
2022/06/12 11:57:52;;;;;;;15.98;11.43;;;;;;;23.04;nan;94870.28;5076234;28;20197;-72
2022/06/12 12:00:25;;;;;;;7.25;6.63;;;;;;;22.87;nan;94868.34;5076275;28;21894;-72
2022/06/12 12:03:12;;;;;;;6.13;5.18;;;;;;;22.69;nan;94862.09;5075241;28;20220;-73
2022/06/12 12:05:51;;;;;;;6.60;5.78;;;;;;;22.63;nan;94870.38;5076377;28;20201;-72
2022/06/12 12:08:35;;;;;;;17.95;15.25;;;;;;;22.74;nan;94865.13;5074301;28;20201;-73
2022/06/12 12:11:08;;;;;;;19.17;13.52;;;;;;;22.77;nan;94846.69;5075012;28;20396;-72
2022/06/12 12:13:42;;;;;;;7.88;7.25;;;;;;;22.75;nan;94853.81;5073534;28;20691;-73
2022/06/12 12:16:23;;;;;;;7.63;7.03;;;;;;;22.47;nan;94838.94;5074487;28;20638;-74
2022/06/12 12:18:55;;;;;;;12.95;11.63;;;;;;;22.73;nan;94850.53;5072326;28;20229;-73
2022/06/12 12:21:29;;;;;;;14.05;12.60;;;;;;;22.89;nan;94848.28;5075024;28;20253;-74
2022/06/12 12:23:58;;;;;;;7.10;6.53;;;;;;;23.29;nan;94847.44;5073436;28;20197;-73
2022/06/12 12:26:28;;;;;;;4.93;4.70;;;;;;;23.33;nan;94847.03;5074400;28;20239;-72